Time;durP1;ratioP1;P1;durP2;ratioP2;P2;SDS_P1;SDS_P2;PMS_P1;PMS_P2;Temp;Humidity;BMP_temperature;BMP_pressure;BME280_temperature;BME280_humidity;BME280_pressure;Samples;Min_cycle;Max_cycle;Signal;HPM_P1;HPM_P2
2022/01/18 00:00:47;;;;;;;60.28;49.53;;;;;;;-145.93;100.00;59239.47;4891204;29;20076;-83
2022/01/18 00:03:13;;;;;;;64.18;48.90;;;;;;;-145.93;100.00;59239.47;4904904;29;20021;-84
2022/01/18 00:05:38;;;;;;;63.80;50.73;;;;;;;-145.93;100.00;59239.47;4904678;29;20039;-82
2022/01/18 00:08:04;;;;;;;56.80;49.17;;;;;;;-145.93;100.00;59239.47;4882107;29;20033;-83
2022/01/18 00:10:32;;;;;;;57.55;49.95;;;;;;;-145.93;100.00;59239.47;4901291;29;20129;-84
2022/01/18 00:15:36;;;;;;;53.88;48.63;;;;;;;-145.93;100.00;59239.47;4908431;29;20025;-84
2022/01/18 00:20:44;;;;;;;60.45;50.35;;;;;;;-145.93;100.00;59239.47;4895507;29;20070;-83
2022/01/18 00:23:10;;;;;;;61.90;50.13;;;;;;;-145.93;100.00;59239.47;4880303;29;20035;-82
2022/01/18 00:25:39;;;;;;;57.10;49.08;;;;;;;-145.93;100.00;59239.47;4904520;29;20028;-82
2022/01/18 00:28:06;;;;;;;54.20;48.58;;;;;;;-145.93;100.00;59239.47;4881306;29;20039;-81
2022/01/18 00:35:42;;;;;;;57.37;50.03;;;;;;;-145.93;100.00;59239.47;4891683;29;20028;-84
2022/01/18 00:38:29;;;;;;;61.75;49.33;;;;;;;-145.93;100.00;59239.47;4902598;29;20172;-83
2022/01/18 00:40:55;;;;;;;57.78;49.22;;;;;;;-145.93;100.00;59239.47;4882537;29;20036;-83
2022/01/18 00:43:21;;;;;;;53.47;48.25;;;;;;;-145.93;100.00;59239.47;4871506;29;20024;-84
2022/01/18 00:45:46;;;;;;;63.83;49.37;;;;;;;-145.93;100.00;59239.47;4885045;29;20035;-84
2022/01/18 00:48:12;;;;;;;54.80;48.87;;;;;;;-145.93;100.00;59239.47;4870782;29;20063;-85
2022/01/18 00:50:46;;;;;;;55.37;48.63;;;;;;;-145.93;100.00;59239.47;4872426;29;20028;-84
2022/01/18 00:53:15;;;;;;;54.08;48.45;;;;;;;-145.93;100.00;59239.47;4888200;29;20029;-83
2022/01/18 00:55:52;;;;;;;57.15;50.70;;;;;;;-145.93;100.00;59239.47;4888157;29;20044;-82
2022/01/18 00:58:17;;;;;;;54.58;48.35;;;;;;;-145.93;100.00;59239.47;4893949;29;20029;-83
2022/01/18 01:00:42;;;;;;;53.23;47.90;;;;;;;-145.93;100.00;59239.47;4868839;29;20037;-83
2022/01/18 01:03:08;;;;;;;54.57;48.80;;;;;;;-145.93;100.00;59239.47;4869798;29;20028;-82
2022/01/18 01:05:34;;;;;;;54.97;49.27;;;;;;;-145.93;100.00;59239.47;4898617;29;20025;-84
2022/01/18 01:08:00;;;;;;;;;;;;;;;-145.93;100.00;59239.47;4894055;29;20051;-83
2022/01/18 01:10:26;;;;;;;54.30;48.42;;;;;;;-145.93;100.00;59239.47;4880871;29;19915;-82
2022/01/18 01:12:52;;;;;;;54.88;48.72;;;;;;;-145.93;100.00;59239.47;4896560;29;20031;-82
2022/01/18 01:15:20;;;;;;;53.40;48.17;;;;;;;-145.93;100.00;59239.47;4909709;29;20024;-86
2022/01/18 01:18:05;;;;;;;53.35;47.90;;;;;;;-145.93;100.00;59239.47;4907473;29;20020;-83
2022/01/18 01:34:38;;;;;;;58.58;48.22;;;;;;;-145.93;100.00;59239.47;4901220;29;20050;-84
2022/01/18 01:42:52;;;;;;;53.92;48.10;;;;;;;-145.93;100.00;59239.47;4887521;29;20049;-83
2022/01/18 01:45:15;;;;;;;62.90;49.58;;;;;;;-145.93;100.00;59239.47;4894377;29;20052;-83
2022/01/18 01:47:40;;;;;;;56.03;49.70;;;;;;;-145.93;100.00;59239.47;4892443;29;20035;-85
2022/01/18 01:50:16;;;;;;;67.77;50.33;;;;;;;-145.93;100.00;59239.47;4910277;29;20032;-83
2022/01/18 01:52:42;;;;;;;82.35;54.38;;;;;;;-145.93;100.00;59239.47;4861174;29;20041;-85
2022/01/18 01:55:09;;;;;;;56.53;50.10;;;;;;;-145.93;100.00;59239.47;4872443;29;20037;-83
2022/01/18 01:57:34;;;;;;;56.17;49.65;;;;;;;-145.93;100.00;59239.47;4870507;29;20025;-84
2022/01/18 02:00:22;;;;;;;59.43;49.20;;;;;;;-145.93;100.00;59239.47;4890731;29;20072;-86
2022/01/18 02:02:58;;;;;;;63.97;51.10;;;;;;;-145.93;100.00;59239.47;4881854;29;20056;-83
2022/01/18 02:05:24;;;;;;;55.20;49.50;;;;;;;-145.93;100.00;59239.47;4890900;29;20119;-84
2022/01/18 02:07:50;;;;;;;57.00;49.45;;;;;;;-145.93;100.00;59239.47;4871786;29;20085;-84
2022/01/18 02:10:16;;;;;;;62.20;51.08;;;;;;;-145.93;100.00;59239.47;4876495;29;20043;-84
2022/01/18 02:12:41;;;;;;;66.47;51.53;;;;;;;-145.93;100.00;59239.47;4886550;29;20392;-84
2022/01/18 02:15:15;;;;;;;60.60;50.53;;;;;;;-145.93;100.00;59239.47;4875797;29;20086;-83
2022/01/18 02:23:28;;;;;;;56.25;49.58;;;;;;;-145.93;100.00;59239.47;4889923;29;20093;-83
2022/01/18 02:25:54;;;;;;;102.25;59.10;;;;;;;-145.93;100.00;59239.47;4887757;23;20044;-79
2022/01/18 02:28:20;;;;;;;61.07;50.47;;;;;;;-145.93;100.00;59239.47;4923176;29;20032;-81
2022/01/18 02:30:46;;;;;;;63.80;51.13;;;;;;;-145.93;100.00;59239.47;4940565;29;20053;-80
2022/01/18 02:33:13;;;;;;;55.35;49.35;;;;;;;-145.93;100.00;59239.47;4938349;29;20088;-80
2022/01/18 02:35:39;;;;;;;55.38;49.50;;;;;;;-145.93;100.00;59239.47;4943402;29;20096;-81
2022/01/18 02:38:04;;;;;;;58.97;50.47;;;;;;;-145.93;100.00;59239.47;4949701;29;20035;-81
2022/01/18 02:40:31;;;;;;;57.15;49.22;;;;;;;-145.93;100.00;59239.47;4929373;29;20502;-81
2022/01/18 02:43:49;;;;;;;60.33;50.30;;;;;;;-145.93;100.00;59239.47;4926597;29;20115;-81
2022/01/18 02:45:55;;;;;;;58.88;50.20;;;;;;;-145.93;100.00;59239.47;4920695;29;20521;-82
2022/01/18 02:48:21;;;;;;;54.50;48.88;;;;;;;-145.93;100.00;59239.47;4908266;29;20040;-82
2022/01/18 02:50:47;;;;;;;66.03;51.72;;;;;;;-145.93;100.00;59239.47;4909674;29;20101;-81
2022/01/18 02:53:12;;;;;;;55.38;49.38;;;;;;;-145.93;100.00;59239.47;4923588;29;20143;-82
2022/01/18 02:55:38;;;;;;;63.85;49.97;;;;;;;-145.93;100.00;59239.47;4903914;29;20473;-82
2022/01/18 02:58:08;;;;;;;54.93;49.03;;;;;;;-145.93;100.00;59239.47;4905601;29;20104;-82
2022/01/18 03:00:45;;;;;;;55.08;49.08;;;;;;;-145.93;100.00;59239.47;4925073;29;20115;-81
2022/01/18 03:03:16;;;;;;;54.97;49.20;;;;;;;-145.93;100.00;59239.47;4910510;29;20453;-82
2022/01/18 03:05:43;;;;;;;54.70;48.95;;;;;;;-145.93;100.00;59239.47;4906165;29;20039;-80
2022/01/18 03:08:10;;;;;;;54.72;49.15;;;;;;;-145.93;100.00;59239.47;4919249;29;20028;-80
2022/01/18 03:10:36;;;;;;;54.50;48.80;;;;;;;-145.93;100.00;59239.47;4920974;29;20035;-83
2022/01/18 03:13:01;;;;;;;54.65;48.80;;;;;;;-145.93;100.00;59239.47;4922141;29;20023;-83
2022/01/18 03:15:27;;;;;;;60.47;50.03;;;;;;;-145.93;100.00;59239.47;4925265;29;20032;-82
2022/01/18 03:17:52;;;;;;;54.87;49.37;;;;;;;-145.93;100.00;59239.47;4920279;29;20035;-81
2022/01/18 03:20:19;;;;;;;53.10;47.90;;;;;;;-145.93;100.00;59239.47;4900258;29;20028;-82
2022/01/18 03:22:47;;;;;;;74.38;52.95;;;;;;;-145.93;100.00;59239.47;4906550;29;20027;-81
2022/01/18 03:25:39;;;;;;;57.20;49.40;;;;;;;-145.93;100.00;59239.47;4908173;29;20036;-81
2022/01/18 03:28:06;;;;;;;53.67;48.30;;;;;;;-145.93;100.00;59239.47;4936008;29;20019;-80
2022/01/18 03:30:37;;;;;;;54.30;48.88;;;;;;;-145.93;100.00;59239.47;4922892;29;20055;-81
2022/01/18 03:33:06;;;;;;;55.15;49.03;;;;;;;-145.93;100.00;59239.47;4909872;29;20141;-79
2022/01/18 03:35:35;;;;;;;58.33;49.60;;;;;;;-145.93;100.00;59239.47;4937312;29;20007;-81
2022/01/18 03:38:00;;;;;;;53.15;48.00;;;;;;;-145.93;100.00;59239.47;4920685;29;20234;-81
2022/01/18 03:40:26;;;;;;;57.15;51.08;;;;;;;-145.93;100.00;59239.47;4925110;29;20032;-82
2022/01/18 03:42:52;;;;;;;55.80;49.73;;;;;;;-145.93;100.00;59239.47;4916965;29;20039;-82
2022/01/18 03:45:20;;;;;;;55.65;49.55;;;;;;;-145.93;100.00;59239.47;4910875;29;20462;-81
2022/01/18 03:47:46;;;;;;;57.83;49.72;;;;;;;-145.93;100.00;59239.47;4922614;29;20042;-81
2022/01/18 03:50:13;;;;;;;58.60;49.20;;;;;;;-145.93;100.00;59239.47;4926993;29;20059;-80
2022/01/18 03:52:40;;;;;;;58.70;50.75;;;;;;;-145.93;100.00;59239.47;4913946;29;20262;-82
2022/01/18 03:55:07;;;;;;;57.30;49.83;;;;;;;-145.93;100.00;59239.47;4924652;29;20392;-81
2022/01/18 03:57:32;;;;;;;55.13;49.35;;;;;;;-145.93;100.00;59239.47;4909082;29;20030;-80
2022/01/18 03:59:58;;;;;;;54.07;48.47;;;;;;;-145.93;100.00;59239.47;4905384;29;20421;-83
2022/01/18 04:02:23;;;;;;;55.00;49.10;;;;;;;-145.93;100.00;59239.47;4915150;29;20035;-83
2022/01/18 04:04:49;;;;;;;55.40;49.33;;;;;;;-145.93;100.00;59239.47;4914465;29;20064;-82
2022/01/18 04:07:14;;;;;;;54.97;49.13;;;;;;;-145.93;100.00;59239.47;4935644;29;20243;-80
2022/01/18 04:09:39;;;;;;;54.57;48.90;;;;;;;-145.93;100.00;59239.47;4935730;29;20031;-80
2022/01/18 04:12:06;;;;;;;58.50;50.10;;;;;;;-145.93;100.00;59239.47;4934992;29;20027;-80
2022/01/18 04:14:31;;;;;;;57.13;49.70;;;;;;;-145.93;100.00;59239.47;4920653;29;20031;-79
2022/01/18 04:27:43;;;;;;;55.83;49.35;;;;;;;-145.93;100.00;59239.47;4918944;29;20034;-80
2022/01/18 04:30:08;;;;;;;54.05;48.22;;;;;;;-145.93;100.00;59239.47;4924765;29;20055;-81
2022/01/18 04:32:34;;;;;;;60.45;50.72;;;;;;;-145.93;100.00;59239.47;4926497;29;20032;-80
2022/01/18 04:34:59;;;;;;;54.40;48.80;;;;;;;-145.93;100.00;59239.47;4922934;29;20039;-81
2022/01/18 04:37:24;;;;;;;54.10;48.67;;;;;;;-145.93;100.00;59239.47;4911535;29;20027;-81
2022/01/18 04:39:50;;;;;;;54.27;48.70;;;;;;;-145.93;100.00;59239.47;4913958;29;20480;-80
2022/01/18 04:42:44;;;;;;;53.33;48.03;;;;;;;-145.93;100.00;59239.47;4912487;29;20040;-81
2022/01/18 04:50:37;;;;;;;54.47;48.97;;;;;;;-145.93;100.00;59239.47;4922321;29;20149;-81
2022/01/18 04:53:02;;;;;;;54.80;49.10;;;;;;;-145.93;100.00;59239.47;4907493;29;20043;-80
2022/01/18 04:55:32;;;;;;;54.00;48.50;;;;;;;-145.93;100.00;59239.47;4905183;29;20060;-81
2022/01/18 04:57:57;;;;;;;56.15;49.85;;;;;;;-145.93;100.00;59239.47;4913336;29;20066;-82
2022/01/18 05:00:24;;;;;;;55.13;49.22;;;;;;;-145.93;100.00;59239.47;4923280;29;20032;-82
2022/01/18 05:02:50;;;;;;;60.95;51.28;;;;;;;-145.93;100.00;59239.47;4907704;29;20078;-82
2022/01/18 05:05:28;;;;;;;54.53;49.08;;;;;;;-145.93;100.00;59239.47;4903320;29;20047;-80
2022/01/18 05:07:55;;;;;;;59.92;50.70;;;;;;;-145.93;100.00;59239.47;4920609;29;20041;-82
2022/01/18 05:10:23;;;;;;;56.72;49.95;;;;;;;-145.93;100.00;59239.47;4909297;29;20042;-81
2022/01/18 05:12:52;;;;;;;72.05;53.08;;;;;;;-145.93;100.00;59239.47;4907599;29;20035;-81
2022/01/18 05:18:59;;;;;;;55.53;49.58;;;;;;;-145.93;100.00;59239.47;4925066;29;20107;-80
2022/01/18 05:21:20;;;;;;;58.25;50.15;;;;;;;-145.93;100.00;59239.47;4936834;29;20035;-82
2022/01/18 05:23:45;;;;;;;55.83;49.67;;;;;;;-145.93;100.00;59239.47;4928258;29;20020;-80
2022/01/18 05:26:10;;;;;;;65.90;50.30;;;;;;;-145.93;100.00;59239.47;4908425;29;20539;-81
2022/01/18 05:28:35;;;;;;;54.93;49.23;;;;;;;-145.93;100.00;59239.47;4916881;29;20031;-82
2022/01/18 05:31:01;;;;;;;56.70;49.47;;;;;;;-145.93;100.00;59239.47;4906609;29;20051;-80
2022/01/18 05:33:26;;;;;;;55.53;49.73;;;;;;;-145.93;100.00;59239.47;4923859;29;20088;-82
2022/01/18 05:35:52;;;;;;;66.10;52.13;;;;;;;-145.93;100.00;59239.47;4900417;29;20035;-82
2022/01/18 05:38:17;;;;;;;57.00;50.07;;;;;;;-145.93;100.00;59239.47;4905203;29;20060;-81
2022/01/18 05:40:42;;;;;;;56.03;49.60;;;;;;;-145.93;100.00;59239.47;4911746;29;20024;-79
2022/01/18 05:43:08;;;;;;;54.03;48.77;;;;;;;-145.93;100.00;59239.47;4919129;29;20071;-80
2022/01/18 05:45:34;;;;;;;63.60;51.77;;;;;;;-145.93;100.00;59239.47;4908363;29;20044;-79
2022/01/18 05:48:00;;;;;;;54.42;48.75;;;;;;;-145.93;100.00;59239.47;4932529;29;20028;-83
2022/01/18 05:50:26;;;;;;;;;;;;;;;-145.93;100.00;59239.47;4922071;29;20031;-81
2022/01/18 05:52:51;;;;;;;61.28;51.17;;;;;;;-145.93;100.00;59239.47;4919672;29;19903;-84
2022/01/18 05:55:17;;;;;;;63.37;51.67;;;;;;;-145.93;100.00;59239.47;4912628;29;20086;-80
2022/01/18 05:57:42;;;;;;;61.27;50.97;;;;;;;-145.93;100.00;59239.47;4911028;29;20051;-78
2022/01/18 06:00:18;;;;;;;67.53;51.47;;;;;;;-145.93;100.00;59239.47;4917203;29;20055;-78
2022/01/18 06:02:53;;;;;;;72.40;53.37;;;;;;;-145.93;100.00;59239.47;4915366;29;20019;-79
2022/01/18 06:08:03;;;;;;;60.65;51.15;;;;;;;-145.93;100.00;59239.47;4920219;29;20405;-78
2022/01/18 06:10:28;;;;;;;57.10;50.57;;;;;;;-145.93;100.00;59239.47;4898806;29;20028;-77
2022/01/18 06:12:54;;;;;;;72.83;53.60;;;;;;;-145.93;100.00;59239.47;4917592;29;20389;-80
2022/01/18 06:15:19;;;;;;;69.30;52.00;;;;;;;-145.93;100.00;59239.47;4917963;29;20027;-81
2022/01/18 06:17:45;;;;;;;77.07;55.00;;;;;;;-145.93;100.00;59239.47;4918811;29;20043;-81
2022/01/18 06:20:11;;;;;;;76.35;54.67;;;;;;;-145.93;100.00;59239.47;4909584;29;20585;-81
2022/01/18 06:22:36;;;;;;;72.32;53.47;;;;;;;-145.93;100.00;59239.47;4906801;29;20055;-80
2022/01/18 06:25:03;;;;;;;68.03;52.07;;;;;;;-145.93;100.00;59239.47;4913103;29;20024;-80
2022/01/18 06:27:28;;;;;;;;;;;;;;;-145.93;100.00;59239.47;4903386;29;20027;-79
2022/01/18 06:29:55;;;;;;;57.67;50.20;;;;;;;-145.93;100.00;59239.47;4924392;29;19925;-78
2022/01/18 06:32:21;;;;;;;63.05;52.03;;;;;;;-145.93;100.00;59239.47;4910454;29;20031;-81
2022/01/18 06:34:46;;;;;;;60.50;50.97;;;;;;;-145.93;100.00;59239.47;4913794;29;20031;-78
2022/01/18 06:37:12;;;;;;;89.13;57.63;;;;;;;-145.93;100.00;59239.47;4913145;29;20493;-79
2022/01/18 06:39:37;;;;;;;62.47;51.30;;;;;;;-145.93;100.00;59239.47;4933872;29;20056;-80
2022/01/18 06:42:03;;;;;;;65.83;51.80;;;;;;;-145.93;100.00;59239.47;4925092;29;20130;-80
2022/01/18 06:44:29;;;;;;;65.90;52.58;;;;;;;-145.93;100.00;59239.47;4911352;29;20071;-79
2022/01/18 06:46:54;;;;;;;79.27;54.97;;;;;;;-145.93;100.00;59239.47;4900596;29;20040;-80
2022/01/18 06:49:20;;;;;;;63.27;52.30;;;;;;;-145.93;100.00;59239.47;4920663;29;20398;-79
2022/01/18 06:51:45;;;;;;;65.93;52.67;;;;;;;-145.93;100.00;59239.47;4909767;29;20034;-79
2022/01/18 06:54:15;;;;;;;61.77;51.60;;;;;;;-145.93;100.00;59239.47;4910743;29;20032;-79
2022/01/18 06:56:47;;;;;;;79.38;55.28;;;;;;;-145.93;100.00;59239.47;4932099;29;20174;-79
2022/01/18 06:59:13;;;;;;;81.88;53.42;;;;;;;-145.93;100.00;59239.47;4926683;29;20032;-79
2022/01/18 07:01:39;;;;;;;61.08;50.80;;;;;;;-145.93;100.00;59239.47;4921148;29;20012;-80
2022/01/18 07:04:04;;;;;;;68.75;53.90;;;;;;;-145.93;100.00;59239.47;4904396;29;20035;-80
2022/01/18 07:06:31;;;;;;;71.23;54.07;;;;;;;-145.93;100.00;59239.47;4926815;29;20028;-79
2022/01/18 07:08:57;;;;;;;68.53;52.03;;;;;;;-145.93;100.00;59239.47;4909408;29;20462;-79
2022/01/18 07:11:22;;;;;;;65.32;53.67;;;;;;;-145.93;100.00;59239.47;4916257;29;20035;-79
2022/01/18 07:13:54;;;;;;;68.37;52.87;;;;;;;-145.93;100.00;59239.47;4921367;29;20071;-80
2022/01/18 07:16:20;;;;;;;81.35;55.72;;;;;;;-145.93;100.00;59239.47;4913234;29;20689;-77
2022/01/18 07:18:45;;;;;;;64.10;53.60;;;;;;;-145.93;100.00;59239.47;4916142;29;20003;-77
2022/01/18 07:21:11;;;;;;;60.73;50.97;;;;;;;-145.93;100.00;59239.47;4925877;29;20047;-77
2022/01/18 07:23:37;;;;;;;75.20;53.00;;;;;;;-145.93;100.00;59239.47;4931415;29;20027;-76
2022/01/18 07:26:03;;;;;;;69.05;51.95;;;;;;;-145.93;100.00;59239.47;4913818;29;20278;-80
2022/01/18 07:28:29;;;;;;;59.00;49.92;;;;;;;-145.93;100.00;59239.47;4906852;29;20038;-79
2022/01/18 07:30:54;;;;;;;74.90;53.70;;;;;;;-145.93;100.00;59239.47;4902042;29;20032;-78
2022/01/18 07:33:20;;;;;;;60.20;51.70;;;;;;;-145.93;100.00;59239.47;4925595;29;20090;-77
2022/01/18 07:35:46;;;;;;;74.50;56.67;;;;;;;-145.93;100.00;59239.47;4917232;29;20472;-83
2022/01/18 07:38:16;;;;;;;70.63;52.50;;;;;;;-145.93;100.00;59239.47;4906843;29;20114;-81
2022/01/18 07:40:44;;;;;;;83.63;55.55;;;;;;;-145.93;100.00;59239.47;4906015;29;20054;-82
2022/01/18 07:43:11;;;;;;;71.63;53.10;;;;;;;-145.93;100.00;59239.47;4908614;29;20031;-82
2022/01/18 07:45:37;;;;;;;85.88;56.40;;;;;;;-145.93;100.00;59239.47;4903010;29;20031;-82
2022/01/18 07:48:02;;;;;;;87.25;56.88;;;;;;;-145.93;100.00;59239.47;4918918;29;20408;-81
2022/01/18 07:50:28;;;;;;;97.57;57.53;;;;;;;-145.93;100.00;59239.47;4919061;29;20040;-79
2022/01/18 07:52:53;;;;;;;90.33;57.30;;;;;;;-145.93;100.00;59239.47;4901841;29;20106;-80
2022/01/18 07:55:19;;;;;;;85.47;57.30;;;;;;;-145.93;100.00;59239.47;4913908;29;20417;-77
2022/01/18 07:57:44;;;;;;;69.03;51.93;;;;;;;-145.93;100.00;59239.47;4896295;29;20039;-78
2022/01/18 08:00:14;;;;;;;77.70;52.72;;;;;;;-145.93;100.00;59239.47;4897637;29;20042;-83
2022/01/18 08:02:41;;;;;;;84.28;57.70;;;;;;;-145.93;100.00;59239.47;4915515;29;20044;-76
2022/01/18 08:05:08;;;;;;;74.10;52.38;;;;;;;-145.93;100.00;59239.47;4921024;29;20028;-76
2022/01/18 08:07:33;;;;;;;73.47;54.92;;;;;;;-145.93;100.00;59239.47;4922337;29;20402;-79
2022/01/18 08:09:59;;;;;;;70.97;53.30;;;;;;;-145.93;100.00;59239.47;4921031;29;20034;-79
2022/01/18 08:12:24;;;;;;;75.27;53.33;;;;;;;-145.93;100.00;59239.47;4901899;29;20016;-78
2022/01/18 08:14:53;;;;;;;68.83;52.40;;;;;;;-145.93;100.00;59239.47;4915725;29;20023;-79
2022/01/18 08:17:19;;;;;;;73.75;53.70;;;;;;;-145.93;100.00;59239.47;4903798;29;20050;-78
2022/01/18 08:19:44;;;;;;;78.77;53.80;;;;;;;-145.93;100.00;59239.47;4905481;29;20023;-78
2022/01/18 08:22:10;;;;;;;71.60;53.97;;;;;;;-145.93;100.00;59239.47;4907575;29;20031;-78
2022/01/18 08:24:36;;;;;;;69.97;52.30;;;;;;;-145.93;100.00;59239.47;4914433;29;20079;-78
2022/01/18 08:27:02;;;;;;;83.65;53.05;;;;;;;-145.93;100.00;59239.47;4926661;23;20056;-77
2022/01/18 08:29:28;;;;;;;73.80;53.00;;;;;;;-145.93;100.00;59239.47;4891819;29;20127;-77
2022/01/18 08:31:53;;;;;;;79.07;54.17;;;;;;;-145.93;100.00;59239.47;4895033;29;20086;-78
2022/01/18 08:34:18;;;;;;;71.27;52.97;;;;;;;-145.93;100.00;59239.47;4866146;29;20055;-81
2022/01/18 08:36:44;;;;;;;73.60;52.83;;;;;;;-145.93;100.00;59239.47;4894809;29;20040;-77
2022/01/18 08:39:10;;;;;;;67.17;52.50;;;;;;;-145.93;100.00;59239.47;4896731;29;20036;-78
2022/01/18 08:41:35;;;;;;;76.18;53.33;;;;;;;-145.93;100.00;59239.47;4884907;29;20040;-77
2022/01/18 08:44:01;;;;;;;67.63;51.33;;;;;;;-145.93;100.00;59239.47;4900009;29;20016;-77
2022/01/18 08:46:26;;;;;;;71.93;51.97;;;;;;;-145.93;100.00;59239.47;4882443;29;20104;-79
2022/01/18 08:48:52;;;;;;;66.35;52.42;;;;;;;-145.93;100.00;59239.47;4866702;29;20202;-78
2022/01/18 08:51:18;;;;;;;86.87;54.27;;;;;;;-145.93;100.00;59239.47;4867996;29;20107;-78
2022/01/18 08:53:48;;;;;;;79.13;52.33;;;;;;;-145.93;100.00;59239.47;4882816;29;20032;-76
2022/01/18 08:56:17;;;;;;;83.43;53.17;;;;;;;-145.93;100.00;59239.47;4885724;29;20025;-77
2022/01/18 08:58:44;;;;;;;73.35;53.65;;;;;;;-145.93;100.00;59239.47;4869888;29;20039;-78
2022/01/18 09:01:10;;;;;;;73.43;53.33;;;;;;;-145.93;100.00;59239.47;4879287;29;20024;-77
2022/01/18 09:03:35;;;;;;;69.13;51.53;;;;;;;-145.93;100.00;59239.47;4884744;29;20070;-79
2022/01/18 09:06:03;;;;;;;79.00;54.57;;;;;;;-145.93;100.00;59239.47;4870590;29;20025;-79
2022/01/18 09:08:28;;;;;;;74.97;53.03;;;;;;;-145.93;100.00;59239.47;4889023;29;20043;-78
2022/01/18 09:10:54;;;;;;;69.03;53.20;;;;;;;-145.93;100.00;59239.47;4886792;29;20033;-78
2022/01/18 09:13:22;;;;;;;71.83;52.10;;;;;;;-145.93;100.00;59239.47;4884476;29;20032;-80
2022/01/18 09:15:47;;;;;;;71.90;54.33;;;;;;;-145.93;100.00;59239.47;4884908;29;20392;-78
2022/01/18 09:18:12;;;;;;;67.23;52.80;;;;;;;-145.93;100.00;59239.47;4884072;29;20514;-77
2022/01/18 09:20:40;;;;;;;72.43;52.93;;;;;;;-145.93;100.00;59239.47;4869021;29;20103;-77
2022/01/18 09:23:07;;;;;;;69.75;53.20;;;;;;;-145.93;100.00;59239.47;4906026;29;20032;-77
2022/01/18 09:25:33;;;;;;;71.75;54.63;;;;;;;-145.93;100.00;59239.47;4887485;29;20045;-77
2022/01/18 09:27:59;;;;;;;81.22;56.20;;;;;;;-145.93;100.00;59239.47;4885622;29;20036;-78
2022/01/18 09:30:26;;;;;;;60.65;51.90;;;;;;;-145.93;100.00;59239.47;4870286;29;20073;-77
2022/01/18 09:32:53;;;;;;;78.05;53.85;;;;;;;-145.93;100.00;59239.47;4867550;29;20040;-78
2022/01/18 09:35:20;;;;;;;65.43;52.78;;;;;;;-145.93;100.00;59239.47;4871822;29;20028;-78
2022/01/18 09:37:46;;;;;;;69.47;52.92;;;;;;;-145.93;100.00;59239.47;4884996;29;20530;-78
2022/01/18 09:40:15;;;;;;;74.97;53.15;;;;;;;-145.93;100.00;59239.47;4878557;29;20025;-77
2022/01/18 09:42:43;;;;;;;76.93;54.88;;;;;;;-145.93;100.00;59239.47;4872777;29;20024;-77
2022/01/18 09:45:11;;;;;;;71.88;53.28;;;;;;;-145.93;100.00;59239.47;4867650;29;20379;-78
2022/01/18 09:47:38;;;;;;;81.05;54.25;;;;;;;-145.93;100.00;59239.47;4869721;29;20037;-77
2022/01/18 09:50:04;;;;;;;67.63;52.47;;;;;;;-145.93;100.00;59239.47;4886873;29;20029;-76
2022/01/18 09:52:30;;;;;;;65.35;53.33;;;;;;;-145.93;100.00;59239.47;4879204;29;20025;-77
2022/01/18 09:54:55;;;;;;;60.47;52.13;;;;;;;-145.93;100.00;59239.47;4886744;29;20025;-78
2022/01/18 09:57:20;;;;;;;84.80;54.50;;;;;;;-145.93;100.00;59239.47;4870723;29;20073;-77
2022/01/18 09:59:46;;;;;;;67.97;52.93;;;;;;;-145.93;100.00;59239.47;4889386;29;20039;-79
2022/01/18 10:02:11;;;;;;;66.83;54.63;;;;;;;-145.93;100.00;59239.47;4891243;29;20398;-78
2022/01/18 10:04:41;;;;;;;64.10;51.67;;;;;;;-145.93;100.00;59239.47;4881927;29;20035;-76
2022/01/18 10:07:06;;;;;;;70.03;52.83;;;;;;;-145.93;100.00;59239.47;4885834;29;20040;-77
2022/01/18 10:09:32;;;;;;;63.07;52.00;;;;;;;-145.93;100.00;59239.47;4897586;29;20068;-76
2022/01/18 10:12:15;;;;;;;63.30;52.37;;;;;;;-145.93;100.00;59239.47;4887478;29;20116;-75
2022/01/18 10:14:43;;;;;;;59.15;52.00;;;;;;;-145.93;100.00;59239.47;4855621;29;20471;-77
2022/01/18 10:17:10;;;;;;;73.40;54.65;;;;;;;-145.93;100.00;59239.47;4895821;29;20032;-77
2022/01/18 10:19:42;;;;;;;66.70;52.08;;;;;;;-145.93;100.00;59239.47;4891453;29;20028;-76
2022/01/18 10:22:13;;;;;;;74.88;53.83;;;;;;;-145.93;100.00;59239.47;4892246;29;20028;-75
2022/01/18 10:24:39;;;;;;;60.63;52.78;;;;;;;-145.93;100.00;59239.47;4901582;29;20027;-78
2022/01/18 10:27:05;;;;;;;70.22;52.90;;;;;;;-145.93;100.00;59239.47;4888189;29;20058;-77
2022/01/18 10:29:37;;;;;;;71.00;51.80;;;;;;;-145.93;100.00;59239.47;4913058;29;20044;-78
2022/01/18 10:32:12;;;;;;;68.20;53.42;;;;;;;-145.93;100.00;59239.47;4871197;29;20035;-78
2022/01/18 10:37:08;;;;;;;67.65;53.13;;;;;;;-145.93;100.00;59239.47;4912541;29;20036;-76
2022/01/18 10:39:40;;;;;;;108.78;61.15;;;;;;;-145.93;100.00;59239.47;4883876;29;20729;-78
2022/01/18 10:42:19;;;;;;;120.20;65.05;;;;;;;-145.93;100.00;59239.47;4906661;29;20414;-77
2022/01/18 10:44:57;;;;;;;61.55;51.45;;;;;;;-145.93;100.00;59239.47;4905722;29;20095;-77
2022/01/18 10:47:22;;;;;;;80.07;55.15;;;;;;;-145.93;100.00;59239.47;4901434;29;20035;-76
2022/01/18 10:49:51;;;;;;;61.10;51.60;;;;;;;-145.93;100.00;59239.47;4895585;29;20024;-77
2022/01/18 10:52:22;;;;;;;65.80;51.90;;;;;;;-145.93;100.00;59239.47;4897707;29;20028;-77
2022/01/18 10:54:58;;;;;;;65.93;51.75;;;;;;;-145.93;100.00;59239.47;4892402;29;20556;-78
2022/01/18 10:57:26;;;;;;;80.32;55.70;;;;;;;-145.93;100.00;59239.47;4890684;29;20048;-76
2022/01/18 11:00:06;;;;;;;62.25;52.00;;;;;;;-145.93;100.00;59239.47;4880513;29;20043;-79
2022/01/18 11:02:33;;;;;;;66.28;52.15;;;;;;;-145.93;100.00;59239.47;4891017;29;20028;-77
2022/01/18 11:05:00;;;;;;;68.00;51.70;;;;;;;-145.93;100.00;59239.47;4887759;29;20028;-77
2022/01/18 11:07:27;;;;;;;78.32;55.05;;;;;;;-145.93;100.00;59239.47;4884670;29;20532;-77
2022/01/18 11:09:54;;;;;;;136.65;70.18;;;;;;;-145.93;100.00;59239.47;4878265;29;20106;-76
2022/01/18 11:12:22;;;;;;;106.57;62.85;;;;;;;-145.93;100.00;59239.47;4872335;29;20123;-79
2022/01/18 11:14:59;;;;;;;62.65;52.20;;;;;;;-145.93;100.00;59239.47;4901160;29;20028;-78
2022/01/18 11:17:26;;;;;;;78.50;55.17;;;;;;;-145.93;100.00;59239.47;4902044;29;20031;-77
2022/01/18 11:19:55;;;;;;;57.28;50.80;;;;;;;-145.93;100.00;59239.47;4905516;29;20423;-79
2022/01/18 11:22:25;;;;;;;58.03;51.33;;;;;;;-145.93;100.00;59239.47;4874572;29;20025;-76
2022/01/18 11:24:50;;;;;;;56.08;50.00;;;;;;;-145.93;100.00;59239.47;4889980;29;20043;-78
2022/01/18 11:27:18;;;;;;;63.07;52.43;;;;;;;-145.93;100.00;59239.47;4882311;29;20698;-77
2022/01/18 11:29:46;;;;;;;56.95;50.58;;;;;;;-145.93;100.00;59239.47;4889368;29;20035;-79
2022/01/18 11:32:13;;;;;;;63.30;52.25;;;;;;;-145.93;100.00;59239.47;4910180;29;20024;-77
2022/01/18 11:35:00;;;;;;;62.95;51.78;;;;;;;-145.93;100.00;59239.47;4922603;29;20050;-78
2022/01/18 11:37:40;;;;;;;65.50;53.58;;;;;;;-145.93;100.00;59239.47;4903758;29;20062;-76
2022/01/18 11:40:12;;;;;;;59.35;50.83;;;;;;;-145.93;100.00;59239.47;4892725;29;20064;-77
2022/01/18 11:42:59;;;;;;;68.28;52.30;;;;;;;-145.93;100.00;59239.47;4872657;29;20047;-77
2022/01/18 11:45:24;;;;;;;56.97;50.78;;;;;;;-145.93;100.00;59239.47;4879763;29;20028;-77
2022/01/18 11:48:19;;;;;;;65.27;52.83;;;;;;;-145.93;100.00;59239.47;4888203;29;20052;-77
2022/01/18 11:51:06;;;;;;;61.00;51.40;;;;;;;-145.93;100.00;59239.47;4891273;29;20137;-76
2022/01/18 11:53:44;;;;;;;59.20;50.50;;;;;;;-145.93;100.00;59239.47;4892253;29;20480;-77
2022/01/18 11:56:35;;;;;;;64.63;52.15;;;;;;;-145.93;100.00;59239.47;4873844;29;20028;-77
2022/01/18 11:59:12;;;;;;;58.22;51.03;;;;;;;-145.93;100.00;59239.47;4893126;29;20164;-77